Riverside, Wyoming
Current Conditions -  °F | °C
As of 9:55 AM on Friday 24 Oct 2014 (Local Time) from KSAA Reporting Station
Clear Clear  
Wind Chill: 57°   Ceiling: Unl
Heat Index: 57°   Visibility: 10mi
Dew Point: 32°   Wind: 8mph
Humidity: 38%   Direction: 100°E
Pressure: 30.31"   Gusts: NA
Location:  41.1336°N, 106.799°W
Report Text: KSAA 241555Z AUTO 10007KT 10SM CLR 14/00 A3031 RMK AO2
Loading
Personal Weather Stations






























Interactive Weather Map
Tropical Storm Tracking
New forecast layout! Learn more

10-Day Weather Forecast

Advertisements
Track Severe Weather on mobile